Newburg, Missouri
Current Conditions -  °F | °C
As of 6:53 PM on Saturday 22 Nov 2014 (Local Time) from KVIH Reporting Station
Overcast Overcast  
Wind Chill: 52°   Ceiling: 1000
Heat Index: 52°   Visibility: 10mi
Dew Point: 49°   Wind: 15mph
Humidity: 89%   Direction: 190°S
Pressure: 29.9"   Gusts: 28mph
Location:  37.91°N, 91.9°W
Report Text: KVIH 230053Z AUTO 19013G24KT 10SM OVC010 11/09 A2990 RMK AO2 SLP124 T01110094
Loading
Personal Weather Stations






























Interactive Weather Map New forecast layout! Learn more

10-Day Weather Forecast

Advertisements
Track Severe Weather on mobile